sensor_id;sensor_type;location;lat;lon;timestamp;pressure;altitude;pressure_sealevel;temperature;humidity
7832;BME280;3961;42.058;25.586;2023-05-16T07:31:15;64611.84;;;21.09;100.00
7832;BME280;3961;42.058;25.586;2023-05-16T07:33:42;64713.69;;;21.93;100.00
7832;BME280;3961;42.058;25.586;2023-05-16T07:36:08;64783.19;;;22.58;99.29
7832;BME280;3961;42.058;25.586;2023-05-16T07:38:34;64840.53;;;23.08;96.52
7832;BME280;3961;42.058;25.586;2023-05-16T07:40:59;64880.94;;;23.43;93.66
7832;BME280;3961;42.058;25.586;2023-05-16T07:43:25;64921.16;;;23.75;91.71
7832;BME280;3961;42.058;25.586;2023-05-16T07:45:50;64946.34;;;23.97;91.07
7832;BME280;3961;42.058;25.586;2023-05-16T07:52:39;64789.03;;;22.63;99.27
7832;BME280;3961;42.058;25.586;2023-05-16T07:55:05;64652.75;;;21.45;100.00
7832;BME280;3961;42.058;25.586;2023-05-16T07:57:31;64573.31;;;20.76;100.00
7832;BME280;3961;42.058;25.586;2023-05-16T07:59:56;64521.31;;;20.31;100.00
7832;BME280;3961;42.058;25.586;2023-05-16T08:02:22;64472.88;;;19.89;100.00
7832;BME280;3961;42.058;25.586;2023-05-16T08:04:55;64395.28;;;19.21;100.00
7832;BME280;3961;42.058;25.586;2023-05-16T08:07:22;64366.16;;;18.96;100.00
7832;BME280;3961;42.058;25.586;2023-05-16T08:09:48;64410.25;;;19.32;100.00
7832;BME280;3961;42.058;25.586;2023-05-16T08:12:13;64387.38;;;19.17;100.00
7832;BME280;3961;42.058;25.586;2023-05-16T08:14:39;64313.91;;;18.53;100.00
7832;BME280;3961;42.058;25.586;2023-05-16T08:17:05;64335.84;;;18.69;100.00
7832;BME280;3961;42.058;25.586;2023-05-16T08:19:30;64301.47;;;18.39;100.00
7832;BME280;3961;42.058;25.586;2023-05-16T08:21:57;64320.91;;;18.59;100.00
7832;BME280;3961;42.058;25.586;2023-05-16T08:24:23;64372.34;;;18.99;100.00
7832;BME280;3961;42.058;25.586;2023-05-16T08:26:49;64399.16;;;19.22;100.00
7832;BME280;3961;42.058;25.586;2023-05-16T08:29:15;64391.00;;;19.15;100.00
7832;BME280;3961;42.058;25.586;2023-05-16T08:31:40;64374.31;;;19.03;100.00
7832;BME280;3961;42.058;25.586;2023-05-16T08:34:06;64365.22;;;18.97;100.00
7832;BME280;3961;42.058;25.586;2023-05-16T08:36:33;64354.50;;;18.86;100.00
7832;BME280;3961;42.058;25.586;2023-05-16T08:38:59;64403.09;;;19.30;100.00
7832;BME280;3961;42.058;25.586;2023-05-16T08:41:25;64407.19;;;19.34;100.00
7832;BME280;3961;42.058;25.586;2023-05-16T08:43:51;64426.44;;;19.51;100.00
7832;BME280;3961;42.058;25.586;2023-05-16T08:46:20;64476.63;;;19.94;100.00
7832;BME280;3961;42.058;25.586;2023-05-16T08:48:51;64546.78;;;20.51;100.00
7832;BME280;3961;42.058;25.586;2023-05-16T08:51:17;64614.75;;;21.12;100.00
7832;BME280;3961;42.058;25.586;2023-05-16T08:53:45;64665.63;;;21.56;100.00
7832;BME280;3961;42.058;25.586;2023-05-16T08:56:15;64685.16;;;21.75;100.00
7832;BME280;3961;42.058;25.586;2023-05-16T08:58:42;64696.59;;;21.83;100.00
7832;BME280;3961;42.058;25.586;2023-05-16T09:01:08;64705.50;;;21.86;100.00
7832;BME280;3961;42.058;25.586;2023-05-16T09:03:37;64618.63;;;21.13;100.00
7832;BME280;3961;42.058;25.586;2023-05-16T09:06:06;64652.16;;;21.44;100.00
7832;BME280;3961;42.058;25.586;2023-05-16T09:08:32;64681.41;;;21.70;100.00
7832;BME280;3961;42.058;25.586;2023-05-16T09:10:59;64660.72;;;21.50;100.00
7832;BME280;3961;42.058;25.586;2023-05-16T09:13:25;64680.47;;;21.71;100.00
7832;BME280;3961;42.058;25.586;2023-05-16T09:16:11;64724.47;;;22.05;100.00
7832;BME280;3961;42.058;25.586;2023-05-16T09:18:44;64771.25;;;22.45;100.00
7832;BME280;3961;42.058;25.586;2023-05-16T09:21:11;64813.97;;;22.83;100.00
7832;BME280;3961;42.058;25.586;2023-05-16T09:23:38;64725.66;;;22.06;100.00
7832;BME280;3961;42.058;25.586;2023-05-16T09:26:06;64697.19;;;21.84;100.00
7832;BME280;3961;42.058;25.586;2023-05-16T09:28:38;64704.78;;;21.90;100.00
7832;BME280;3961;42.058;25.586;2023-05-16T09:31:18;64676.38;;;21.68;100.00
7832;BME280;3961;42.058;25.586;2023-05-16T09:33:45;64672.28;;;21.64;100.00
7832;BME280;3961;42.058;25.586;2023-05-16T09:36:10;64674.16;;;21.61;100.00
7832;BME280;3961;42.058;25.586;2023-05-16T09:38:36;64705.94;;;21.91;100.00
7832;BME280;3961;42.058;25.586;2023-05-16T09:41:02;64658.38;;;21.48;100.00
7832;BME280;3961;42.058;25.586;2023-05-16T09:43:27;64737.53;;;22.19;100.00
7832;BME280;3961;42.058;25.586;2023-05-16T09:45:53;64676.38;;;21.68;100.00
7832;BME280;3961;42.058;25.586;2023-05-16T09:48:20;64678.50;;;21.67;100.00
7832;BME280;3961;42.058;25.586;2023-05-16T09:50:50;64680.69;;;21.74;100.00
7832;BME280;3961;42.058;25.586;2023-05-16T09:53:23;64715.31;;;21.99;99.92
7832;BME280;3961;42.058;25.586;2023-05-16T09:55:58;64725.88;;;22.08;100.00
7832;BME280;3961;42.058;25.586;2023-05-16T09:58:28;64714.97;;;22.01;100.00
7832;BME280;3961;42.058;25.586;2023-05-16T10:00:54;64741.66;;;22.22;100.00
7832;BME280;3961;42.058;25.586;2023-05-16T10:03:21;64765.63;;;22.43;96.38
7832;BME280;3961;42.058;25.586;2023-05-16T10:05:46;64780.47;;;22.58;98.70
7832;BME280;3961;42.058;25.586;2023-05-16T10:08:12;64774.75;;;22.49;97.37
7832;BME280;3961;42.058;25.586;2023-05-16T10:10:38;64739.09;;;22.18;99.46
7832;BME280;3961;42.058;25.586;2023-05-16T10:13:05;64760.16;;;22.36;100.00
7832;BME280;3961;42.058;25.586;2023-05-16T10:15:32;64751.81;;;22.33;98.50
7832;BME280;3961;42.058;25.586;2023-05-16T10:17:58;64730.31;;;22.10;99.15
7832;BME280;3961;42.058;25.586;2023-05-16T10:20:25;64676.38;;;21.68;100.00
7832;BME280;3961;42.058;25.586;2023-05-16T10:22:52;64699.53;;;21.86;99.86
7832;BME280;3961;42.058;25.586;2023-05-16T10:25:33;64679.88;;;21.71;100.00
7832;BME280;3961;42.058;25.586;2023-05-16T10:27:58;64672.63;;;21.62;100.00
7832;BME280;3961;42.058;25.586;2023-05-16T10:30:25;64686.09;;;21.74;100.00
7832;BME280;3961;42.058;25.586;2023-05-16T10:32:52;64679.06;;;21.68;100.00
7832;BME280;3961;42.058;25.586;2023-05-16T10:35:19;64678.63;;;21.63;100.00
7832;BME280;3961;42.058;25.586;2023-05-16T10:37:45;64653.13;;;21.43;100.00
7832;BME280;3961;42.058;25.586;2023-05-16T10:40:11;64640.72;;;21.37;100.00
7832;BME280;3961;42.058;25.586;2023-05-16T10:42:37;64679.06;;;21.68;100.00
7832;BME280;3961;42.058;25.586;2023-05-16T10:45:16;64707.94;;;21.95;100.00
7832;BME280;3961;42.058;25.586;2023-05-16T10:47:54;64727.19;;;22.05;100.00
7832;BME280;3961;42.058;25.586;2023-05-16T10:53:20;64776.16;;;22.52;100.00
7832;BME280;3961;42.058;25.586;2023-05-16T11:06:24;64982.34;;;24.31;96.23
7832;BME280;3961;42.058;25.586;2023-05-16T11:16:54;64928.41;;;23.84;98.13
7832;BME280;3961;42.058;25.586;2023-05-16T11:19:48;64959.00;;;24.06;96.30
7832;BME280;3961;42.058;25.586;2023-05-16T11:22:21;64945.19;;;23.96;97.88
7832;BME280;3961;42.058;25.586;2023-05-16T11:25:14;64921.72;;;23.76;98.82
7832;BME280;3961;42.058;25.586;2023-05-16T11:27:44;64875.09;;;23.38;100.00
7832;BME280;3961;42.058;25.586;2023-05-16T11:30:14;64856.94;;;23.22;100.00
7832;BME280;3961;42.058;25.586;2023-05-16T11:32:43;64865.13;;;23.29;100.00
7832;BME280;3961;42.058;25.586;2023-05-16T11:35:11;64895.38;;;23.53;100.00
7832;BME280;3961;42.058;25.586;2023-05-16T11:37:36;64898.53;;;23.58;100.00
7832;BME280;3961;42.058;25.586;2023-05-16T11:40:05;64943.19;;;23.92;100.00
7832;BME280;3961;42.058;25.586;2023-05-16T11:42:50;64915.50;;;23.73;100.00
7832;BME280;3961;42.058;25.586;2023-05-16T11:45:18;64931.91;;;23.87;100.00
7832;BME280;3961;42.058;25.586;2023-05-16T11:47:45;64890.88;;;23.52;100.00
7832;BME280;3961;42.058;25.586;2023-05-16T11:50:19;64912.00;;;23.70;100.00
7832;BME280;3961;42.058;25.586;2023-05-16T11:52:47;64923.13;;;23.79;100.00
7832;BME280;3961;42.058;25.586;2023-05-16T11:55:15;64926.84;;;23.85;100.00
7832;BME280;3961;42.058;25.586;2023-05-16T11:57:41;64917.47;;;23.77;100.00
7832;BME280;3961;42.058;25.586;2023-05-16T12:00:14;64971.09;;;24.14;100.00
7832;BME280;3961;42.058;25.586;2023-05-16T12:02:40;65010.47;;;24.55;100.00
7832;BME280;3961;42.058;25.586;2023-05-16T12:05:09;65054.44;;;24.93;98.31
7832;BME280;3961;42.058;25.586;2023-05-16T12:07:36;65018.31;;;24.64;95.91
7832;BME280;3961;42.058;25.586;2023-05-16T12:10:08;65057.75;;;24.94;96.82
7832;BME280;3961;42.058;25.586;2023-05-16T12:12:35;65086.88;;;25.17;94.59
7832;BME280;3961;42.058;25.586;2023-05-16T12:15:05;65099.63;;;25.32;94.28
7832;BME280;3961;42.058;25.586;2023-05-16T12:17:36;65109.22;;;25.43;93.19
7832;BME280;3961;42.058;25.586;2023-05-16T12:20:03;65098.66;;;25.34;92.70
7832;BME280;3961;42.058;25.586;2023-05-16T12:22:51;65107.81;;;25.39;94.99
7832;BME280;3961;42.058;25.586;2023-05-16T12:27:48;65081.59;;;25.12;93.09
7832;BME280;3961;42.058;25.586;2023-05-16T12:30:16;65073.38;;;25.05;94.52
7832;BME280;3961;42.058;25.586;2023-05-16T12:32:42;65052.69;;;24.92;94.98
7832;BME280;3961;42.058;25.586;2023-05-16T12:35:09;65057.16;;;24.93;94.88
7832;BME280;3961;42.058;25.586;2023-05-16T12:37:36;65057.16;;;24.93;95.04
7832;BME280;3961;42.058;25.586;2023-05-16T12:40:01;65050.31;;;24.90;96.31
7832;BME280;3961;42.058;25.586;2023-05-16T12:42:29;65036.47;;;24.80;95.99
7832;BME280;3961;42.058;25.586;2023-05-16T12:44:55;65003.44;;;24.49;96.74
7832;BME280;3961;42.058;25.586;2023-05-16T12:47:21;64914.34;;;23.72;100.00
7832;BME280;3961;42.058;25.586;2023-05-16T12:49:47;64951.25;;;24.04;99.39
7832;BME280;3961;42.058;25.586;2023-05-16T12:52:19;64941.28;;;23.95;100.00
7832;BME280;3961;42.058;25.586;2023-05-16T12:54:45;64947.75;;;24.01;100.00
7832;BME280;3961;42.058;25.586;2023-05-16T12:57:10;64944.00;;;23.95;100.00
7832;BME280;3961;42.058;25.586;2023-05-16T12:59:36;64949.88;;;24.00;100.00
7832;BME280;3961;42.058;25.586;2023-05-16T13:02:02;64918.66;;;23.78;100.00
7832;BME280;3961;42.058;25.586;2023-05-16T13:04:28;64915.50;;;23.73;99.78
7832;BME280;3961;42.058;25.586;2023-05-16T13:06:54;64937.78;;;23.92;100.00
7832;BME280;3961;42.058;25.586;2023-05-16T13:09:20;64939.53;;;23.94;100.00
7832;BME280;3961;42.058;25.586;2023-05-16T13:11:46;64969.41;;;24.20;100.00
7832;BME280;3961;42.058;25.586;2023-05-16T13:14:11;64972.13;;;24.20;100.00
7832;BME280;3961;42.058;25.586;2023-05-16T13:16:37;64971.16;;;24.21;100.00
7832;BME280;3961;42.058;25.586;2023-05-16T13:19:02;64919.03;;;23.76;100.00
7832;BME280;3961;42.058;25.586;2023-05-16T13:21:29;64957.09;;;24.09;100.00
7832;BME280;3961;42.058;25.586;2023-05-16T13:23:59;64923.72;;;23.80;100.00
7832;BME280;3961;42.058;25.586;2023-05-16T13:26:24;64917.63;;;23.72;100.00
7832;BME280;3961;42.058;25.586;2023-05-16T13:28:51;64934.03;;;23.87;100.00
7832;BME280;3961;42.058;25.586;2023-05-16T13:31:19;64936.25;;;23.93;100.00
7832;BME280;3961;42.058;25.586;2023-05-16T13:33:44;64951.81;;;24.04;100.00
7832;BME280;3961;42.058;25.586;2023-05-16T13:36:10;64977.19;;;24.22;100.00
7832;BME280;3961;42.058;25.586;2023-05-16T13:38:35;64991.50;;;24.36;100.00
7832;BME280;3961;42.058;25.586;2023-05-16T13:41:01;64996.00;;;24.45;100.00
7832;BME280;3961;42.058;25.586;2023-05-16T13:43:26;65001.66;;;24.48;100.00
7832;BME280;3961;42.058;25.586;2023-05-16T13:45:52;65000.28;;;24.44;100.00
7832;BME280;3961;42.058;25.586;2023-05-16T13:48:17;64992.66;;;24.37;100.00
7832;BME280;3961;42.058;25.586;2023-05-16T13:50:43;64985.19;;;24.26;99.93
7832;BME280;3961;42.058;25.586;2023-05-16T13:53:09;64923.72;;;23.80;100.00
7832;BME280;3961;42.058;25.586;2023-05-16T13:55:35;64990.91;;;24.36;99.85
7832;BME280;3961;42.058;25.586;2023-05-16T13:58:00;64967.06;;;24.18;100.00
7832;BME280;3961;42.058;25.586;2023-05-16T14:00:27;64977.06;;;24.26;100.00
7832;BME280;3961;42.058;25.586;2023-05-16T14:02:53;64973.28;;;24.21;100.00
7832;BME280;3961;42.058;25.586;2023-05-16T14:05:19;64968.25;;;24.19;100.00
7832;BME280;3961;42.058;25.586;2023-05-16T14:07:44;64959.44;;;24.11;100.00
7832;BME280;3961;42.058;25.586;2023-05-16T14:10:10;64964.50;;;24.13;100.00
7832;BME280;3961;42.058;25.586;2023-05-16T14:12:35;64973.75;;;24.26;100.00
7832;BME280;3961;42.058;25.586;2023-05-16T14:15:02;64970.16;;;24.16;100.00
7832;BME280;3961;42.058;25.586;2023-05-16T14:17:28;64972.13;;;24.20;100.00
7832;BME280;3961;42.058;25.586;2023-05-16T14:19:53;64978.59;;;24.25;100.00
7832;BME280;3961;42.058;25.586;2023-05-16T14:22:19;64964.50;;;24.13;100.00
7832;BME280;3961;42.058;25.586;2023-05-16T14:24:45;64974.94;;;24.27;100.00
7832;BME280;3961;42.058;25.586;2023-05-16T14:27:10;64987.16;;;24.30;100.00
7832;BME280;3961;42.058;25.586;2023-05-16T14:29:36;64987.38;;;24.33;100.00
7832;BME280;3961;42.058;25.586;2023-05-16T14:32:01;64985.03;;;24.31;100.00
7832;BME280;3961;42.058;25.586;2023-05-16T14:34:27;64983.50;;;24.32;100.00
7832;BME280;3961;42.058;25.586;2023-05-16T14:36:52;64981.16;;;24.30;100.00
7832;BME280;3961;42.058;25.586;2023-05-16T14:39:18;65006.50;;;24.47;100.00
7832;BME280;3961;42.058;25.586;2023-05-16T14:41:43;65014.72;;;24.54;100.00
7832;BME280;3961;42.058;25.586;2023-05-16T14:44:09;65000.84;;;24.44;100.00
7832;BME280;3961;42.058;25.586;2023-05-16T14:46:34;64991.09;;;24.38;100.00
7832;BME280;3961;42.058;25.586;2023-05-16T14:49:00;64974.09;;;24.24;100.00
7832;BME280;3961;42.058;25.586;2023-05-16T14:51:26;64951.25;;;24.04;100.00
7832;BME280;3961;42.058;25.586;2023-05-16T14:53:51;64951.44;;;24.06;100.00
7832;BME280;3961;42.058;25.586;2023-05-16T14:56:17;64940.47;;;23.92;100.00
7832;BME280;3961;42.058;25.586;2023-05-16T14:58:42;64953.38;;;24.03;100.00
7832;BME280;3961;42.058;25.586;2023-05-16T15:01:08;64958.84;;;24.10;100.00
7832;BME280;3961;42.058;25.586;2023-05-16T15:03:35;64967.81;;;24.13;100.00
7832;BME280;3961;42.058;25.586;2023-05-16T15:06:00;64955.34;;;24.07;100.00
7832;BME280;3961;42.058;25.586;2023-05-16T15:08:26;64965.69;;;24.14;100.00
7832;BME280;3961;42.058;25.586;2023-05-16T15:10:51;64950.44;;;24.01;100.00
7832;BME280;3961;42.058;25.586;2023-05-16T15:13:17;64936.59;;;23.91;100.00
7832;BME280;3961;42.058;25.586;2023-05-16T15:15:43;64944.00;;;23.95;100.00
7832;BME280;3961;42.058;25.586;2023-05-16T15:18:08;64912.78;;;23.73;100.00
7832;BME280;3961;42.058;25.586;2023-05-16T15:20:35;64921.94;;;23.78;100.00
7832;BME280;3961;42.058;25.586;2023-05-16T15:23:00;64934.63;;;23.87;100.00
7832;BME280;3961;42.058;25.586;2023-05-16T15:25:26;64942.47;;;23.96;100.00
7832;BME280;3961;42.058;25.586;2023-05-16T15:27:51;64949.50;;;24.02;100.00
7832;BME280;3961;42.058;25.586;2023-05-16T15:30:17;64955.94;;;24.08;100.00
7832;BME280;3961;42.058;25.586;2023-05-16T15:32:42;64965.44;;;24.11;100.00
7832;BME280;3961;42.058;25.586;2023-05-16T15:35:08;64970.00;;;24.20;100.00
7832;BME280;3961;42.058;25.586;2023-05-16T15:37:34;64966.25;;;24.15;100.00
7832;BME280;3961;42.058;25.586;2023-05-16T15:40:00;64986.81;;;24.32;100.00
7832;BME280;3961;42.058;25.586;2023-05-16T15:42:25;64986.44;;;24.34;100.00
7832;BME280;3961;42.058;25.586;2023-05-16T15:44:51;64987.38;;;24.33;100.00
7832;BME280;3961;42.058;25.586;2023-05-16T15:47:16;64971.97;;;24.24;100.00
7832;BME280;3961;42.058;25.586;2023-05-16T15:49:42;64980.44;;;24.34;100.00
7832;BME280;3961;42.058;25.586;2023-05-16T15:52:07;64966.13;;;24.19;100.00
7832;BME280;3961;42.058;25.586;2023-05-16T15:54:34;64959.44;;;24.11;100.00
7832;BME280;3961;42.058;25.586;2023-05-16T15:57:00;64972.94;;;24.23;100.00
7832;BME280;3961;42.058;25.586;2023-05-16T15:59:26;64960.97;;;24.10;100.00
7832;BME280;3961;42.058;25.586;2023-05-16T16:01:51;64949.50;;;24.02;100.00
7832;BME280;3961;42.058;25.586;2023-05-16T16:04:17;64948.69;;;23.99;100.00
7832;BME280;3961;42.058;25.586;2023-05-16T16:06:43;64936.59;;;23.91;100.00
7832;BME280;3961;42.058;25.586;2023-05-16T16:09:08;64936.00;;;23.91;100.00
7832;BME280;3961;42.058;25.586;2023-05-16T16:11:35;64918.81;;;23.73;100.00
7832;BME280;3961;42.058;25.586;2023-05-16T16:14:00;64913.19;;;23.71;100.00
7832;BME280;3961;42.058;25.586;2023-05-16T16:16:26;64909.66;;;23.68;100.00
7832;BME280;3961;42.058;25.586;2023-05-16T16:18:52;64898.91;;;23.56;100.00
7832;BME280;3961;42.058;25.586;2023-05-16T16:21:18;64882.09;;;23.44;100.00
7832;BME280;3961;42.058;25.586;2023-05-16T16:23:43;64876.63;;;23.37;100.00
7832;BME280;3961;42.058;25.586;2023-05-16T16:26:09;64854.59;;;23.20;100.00
7832;BME280;3961;42.058;25.586;2023-05-16T16:28:34;64844.63;;;23.11;100.00
7832;BME280;3961;42.058;25.586;2023-05-16T16:31:00;64826.50;;;22.96;100.00
7832;BME280;3961;42.058;25.586;2023-05-16T16:33:25;64826.88;;;22.94;100.00
7832;BME280;3961;42.058;25.586;2023-05-16T16:35:51;64821.97;;;22.87;100.00
7832;BME280;3961;42.058;25.586;2023-05-16T16:38:18;64806.59;;;22.78;100.00
7832;BME280;3961;42.058;25.586;2023-05-16T16:40:44;64790.56;;;22.62;100.00
7832;BME280;3961;42.058;25.586;2023-05-16T16:43:09;64759.78;;;22.38;100.00
7832;BME280;3961;42.058;25.586;2023-05-16T16:45:35;64754.53;;;22.33;100.00
7832;BME280;3961;42.058;25.586;2023-05-16T16:48:00;64737.53;;;22.19;100.00
7832;BME280;3961;42.058;25.586;2023-05-16T16:50:26;64747.50;;;22.27;100.00
7832;BME280;3961;42.058;25.586;2023-05-16T16:52:51;64743.19;;;22.21;100.00
7832;BME280;3961;42.058;25.586;2023-05-16T16:55:18;64747.84;;;22.25;100.00
7832;BME280;3961;42.058;25.586;2023-05-16T16:57:43;64729.72;;;22.09;100.00
7832;BME280;3961;42.058;25.586;2023-05-16T17:00:10;64718.25;;;22.02;100.00
7832;BME280;3961;42.058;25.586;2023-05-16T17:02:35;64712.16;;;21.94;100.00
7832;BME280;3961;42.058;25.586;2023-05-16T17:05:01;64710.63;;;21.95;100.00
7832;BME280;3961;42.058;25.586;2023-05-16T17:07:29;64696.59;;;21.83;100.00
7832;BME280;3961;42.058;25.586;2023-05-16T17:09:55;64682.00;;;21.70;100.00
7832;BME280;3961;42.058;25.586;2023-05-16T17:12:20;64669.63;;;21.53;100.00
7832;BME280;3961;42.058;25.586;2023-05-16T17:14:49;64658.03;;;21.50;100.00
7832;BME280;3961;42.058;25.586;2023-05-16T17:17:16;64637.22;;;21.34;99.73
7832;BME280;3961;42.058;25.586;2023-05-16T17:19:44;64625.31;;;21.21;100.00
7832;BME280;3961;42.058;25.586;2023-05-16T17:22:10;64617.53;;;21.19;100.00
7832;BME280;3961;42.058;25.586;2023-05-16T17:24:36;64600.53;;;20.97;100.00
7832;BME280;3961;42.058;25.586;2023-05-16T17:27:01;64601.13;;;20.98;100.00
7832;BME280;3961;42.058;25.586;2023-05-16T17:29:27;64603.09;;;21.02;100.00
7832;BME280;3961;42.058;25.586;2023-05-16T17:31:52;64594.31;;;20.94;100.00
7832;BME280;3961;42.058;25.586;2023-05-16T17:34:18;64597.59;;;20.95;100.00
7832;BME280;3961;42.058;25.586;2023-05-16T17:36:43;64581.81;;;20.81;100.00
7832;BME280;3961;42.058;25.586;2023-05-16T17:39:09;64572.50;;;20.73;100.00
7832;BME280;3961;42.058;25.586;2023-05-16T17:41:35;64569.59;;;20.70;100.00
7832;BME280;3961;42.058;25.586;2023-05-16T17:44:01;64549.94;;;20.56;100.00
7832;BME280;3961;42.058;25.586;2023-05-16T17:46:27;64550.53;;;20.56;100.00
7832;BME280;3961;42.058;25.586;2023-05-16T17:48:52;64550.66;;;20.52;100.00
7832;BME280;3961;42.058;25.586;2023-05-16T17:51:18;64529.16;;;20.40;100.00
7832;BME280;3961;42.058;25.586;2023-05-16T17:53:44;64539.44;;;20.47;100.00
7832;BME280;3961;42.058;25.586;2023-05-16T17:56:09;64527.53;;;20.34;100.00
7832;BME280;3961;42.058;25.586;2023-05-16T17:58:35;64538.88;;;20.46;100.00
7832;BME280;3961;42.058;25.586;2023-05-16T18:01:02;64552.88;;;20.58;100.00
7832;BME280;3961;42.058;25.586;2023-05-16T18:03:30;64553.09;;;20.61;100.00
7832;BME280;3961;42.058;25.586;2023-05-16T18:05:55;64572.50;;;20.73;100.00
7832;BME280;3961;42.058;25.586;2023-05-16T18:08:21;64570.16;;;20.71;100.00
7832;BME280;3961;42.058;25.586;2023-05-16T18:10:47;64551.13;;;20.57;98.95
7832;BME280;3961;42.058;25.586;2023-05-16T18:13:13;64554.41;;;20.57;98.82
7832;BME280;3961;42.058;25.586;2023-05-16T18:15:39;64553.59;;;20.54;98.73
7832;BME280;3961;42.058;25.586;2023-05-16T18:18:05;64532.44;;;20.40;97.68
7832;BME280;3961;42.058;25.586;2023-05-16T18:20:30;64531.97;;;20.35;98.66
7832;BME280;3961;42.058;25.586;2023-05-16T18:22:56;64521.31;;;20.31;97.76
7832;BME280;3961;42.058;25.586;2023-05-16T18:25:21;64516.06;;;20.26;97.68
7832;BME280;3961;42.058;25.586;2023-05-16T18:27:47;64509.06;;;20.20;97.14
7832;BME280;3961;42.058;25.586;2023-05-16T18:30:12;64525.78;;;20.32;97.71
7832;BME280;3961;42.058;25.586;2023-05-16T18:32:38;64523.06;;;20.32;96.80
7832;BME280;3961;42.058;25.586;2023-05-16T18:35:04;64534.56;;;20.40;96.77
7832;BME280;3961;42.058;25.586;2023-05-16T18:37:30;64533.03;;;20.41;96.47
7832;BME280;3961;42.058;25.586;2023-05-16T18:39:55;64531.50;;;20.42;96.79
7832;BME280;3961;42.058;25.586;2023-05-16T18:42:21;64523.44;;;20.30;98.53
7832;BME280;3961;42.058;25.586;2023-05-16T18:44:47;64533.97;;;20.39;98.40
7832;BME280;3961;42.058;25.586;2023-05-16T18:47:12;64530.34;;;20.41;98.86
7832;BME280;3961;42.058;25.586;2023-05-16T18:49:40;64523.06;;;20.32;99.25
7832;BME280;3961;42.058;25.586;2023-05-16T18:52:09;64536.53;;;20.44;99.05
7832;BME280;3961;42.058;25.586;2023-05-16T18:54:36;64535.59;;;20.45;98.69
7832;BME280;3961;42.058;25.586;2023-05-16T18:57:03;64533.97;;;20.39;98.03
7832;BME280;3961;42.058;25.586;2023-05-16T18:59:29;64466.69;;;19.86;95.98
7832;BME280;3961;42.058;25.586;2023-05-16T19:01:55;64500.53;;;20.15;96.67
7832;BME280;3961;42.058;25.586;2023-05-16T19:04:21;64525.41;;;20.34;95.94
7832;BME280;3961;42.058;25.586;2023-05-16T19:06:47;64517.81;;;20.28;95.57
7832;BME280;3961;42.058;25.586;2023-05-16T19:09:13;64505.78;;;20.20;91.58
7832;BME280;3961;42.058;25.586;2023-05-16T19:11:38;64494.13;;;20.09;94.35
7832;BME280;3961;42.058;25.586;2023-05-16T19:14:05;64503.38;;;20.10;93.02
7832;BME280;3961;42.058;25.586;2023-05-16T19:16:31;64480.47;;;19.95;89.96
7832;BME280;3961;42.058;25.586;2023-05-16T19:18:58;64486.31;;;20.00;89.46
7832;BME280;3961;42.058;25.586;2023-05-16T19:21:23;64494.72;;;20.10;90.76
7832;BME280;3961;42.058;25.586;2023-05-16T19:23:49;64489.81;;;20.03;92.75
7832;BME280;3961;42.058;25.586;2023-05-16T19:26:14;64480.47;;;19.95;93.29
7832;BME280;3961;42.058;25.586;2023-05-16T19:28:40;64478.72;;;19.94;93.12
7832;BME280;3961;42.058;25.586;2023-05-16T19:31:07;64484.19;;;20.01;93.61
7832;BME280;3961;42.058;25.586;2023-05-16T19:33:33;64488.19;;;19.97;94.63
7832;BME280;3961;42.058;25.586;2023-05-16T19:36:00;64476.38;;;19.92;95.40
7832;BME280;3961;42.058;25.586;2023-05-16T19:38:26;64475.91;;;19.98;93.71
7832;BME280;3961;42.058;25.586;2023-05-16T19:40:52;64475.22;;;19.91;92.16
7832;BME280;3961;42.058;25.586;2023-05-16T19:43:18;64471.72;;;19.88;93.38
7832;BME280;3961;42.058;25.586;2023-05-16T19:45:43;64481.06;;;19.96;92.35
7832;BME280;3961;42.058;25.586;2023-05-16T19:48:09;64476.03;;;19.94;91.80
7832;BME280;3961;42.058;25.586;2023-05-16T19:50:35;64473.09;;;19.91;91.98
7832;BME280;3961;42.058;25.586;2023-05-16T19:53:01;64469.38;;;19.86;92.27
7832;BME280;3961;42.058;25.586;2023-05-16T19:55:27;64452.47;;;19.71;93.86
7832;BME280;3961;42.058;25.586;2023-05-16T19:57:53;64449.91;;;19.66;96.73
7832;BME280;3961;42.058;25.586;2023-05-16T20:00:19;64446.06;;;19.65;100.00
7832;BME280;3961;42.058;25.586;2023-05-16T20:02:45;64433.81;;;19.55;100.00
7832;BME280;3961;42.058;25.586;2023-05-16T20:05:10;64427.50;;;19.44;100.00
7832;BME280;3961;42.058;25.586;2023-05-16T20:07:36;64418.28;;;19.43;100.00
7832;BME280;3961;42.058;25.586;2023-05-16T20:10:03;64394.72;;;19.21;100.00
7832;BME280;3961;42.058;25.586;2023-05-16T20:12:29;64373.16;;;19.02;100.00
7832;BME280;3961;42.058;25.586;2023-05-16T20:14:55;64354.28;;;18.83;100.00
7832;BME280;3961;42.058;25.586;2023-05-16T20:17:20;64265.34;;;18.08;100.00
7832;BME280;3961;42.058;25.586;2023-05-16T20:19:45;64235.09;;;17.82;100.00
7832;BME280;3961;42.058;25.586;2023-05-16T20:22:11;64242.63;;;17.88;100.00
7832;BME280;3961;42.058;25.586;2023-05-16T20:24:36;64226.94;;;17.74;100.00
7832;BME280;3961;42.058;25.586;2023-05-16T20:27:02;64233.94;;;17.81;100.00
7832;BME280;3961;42.058;25.586;2023-05-16T20:29:28;64215.63;;;17.62;100.00
7832;BME280;3961;42.058;25.586;2023-05-16T20:31:55;64227.50;;;17.75;100.00
7832;BME280;3961;42.058;25.586;2023-05-16T20:34:21;64219.59;;;17.70;100.00
7832;BME280;3961;42.058;25.586;2023-05-16T20:36:46;64213.28;;;17.60;100.00
7832;BME280;3961;42.058;25.586;2023-05-16T20:39:11;64201.31;;;17.52;100.00
7832;BME280;3961;42.058;25.586;2023-05-16T20:41:37;64158.03;;;17.12;100.00
7832;BME280;3961;42.058;25.586;2023-05-16T20:44:02;64134.97;;;16.94;100.00
7832;BME280;3961;42.058;25.586;2023-05-16T20:46:28;64167.53;;;17.23;100.00
7832;BME280;3961;42.058;25.586;2023-05-16T20:48:53;64155.56;;;17.15;100.00
7832;BME280;3961;42.058;25.586;2023-05-16T20:51:19;64157.66;;;17.14;100.00
7832;BME280;3961;42.058;25.586;2023-05-16T20:53:44;64156.75;;;17.16;100.00
7832;BME280;3961;42.058;25.586;2023-05-16T20:56:10;64172.78;;;17.27;100.00
7832;BME280;3961;42.058;25.586;2023-05-16T20:58:35;64147.78;;;17.05;100.00